sensor_id;sensor_type;location;lat;lon;timestamp;temperature;humidity
5276;DHT22;2661;50.786;12.728;2024-01-10T00:00:34;-8.40;1.00
5276;DHT22;2661;50.786;12.728;2024-01-10T00:03:02;-8.40;1.00
5276;DHT22;2661;50.786;12.728;2024-01-10T00:05:29;-8.50;1.00
5276;DHT22;2661;50.786;12.728;2024-01-10T00:07:56;-8.50;1.00
5276;DHT22;2661;50.786;12.728;2024-01-10T00:10:23;-8.50;1.00
5276;DHT22;2661;50.786;12.728;2024-01-10T00:12:49;-8.50;1.00
5276;DHT22;2661;50.786;12.728;2024-01-10T00:15:16;-8.40;1.00
5276;DHT22;2661;50.786;12.728;2024-01-10T00:17:42;-8.40;1.00
5276;DHT22;2661;50.786;12.728;2024-01-10T00:20:09;-8.50;16.50
5276;DHT22;2661;50.786;12.728;2024-01-10T00:22:36;-8.50;1.00
5276;DHT22;2661;50.786;12.728;2024-01-10T00:25:03;-8.50;1.00
5276;DHT22;2661;50.786;12.728;2024-01-10T00:27:29;-8.50;1.00
5276;DHT22;2661;50.786;12.728;2024-01-10T00:29:56;-8.50;1.00
5276;DHT22;2661;50.786;12.728;2024-01-10T00:32:24;-8.40;1.00
5276;DHT22;2661;50.786;12.728;2024-01-10T00:34:51;-8.50;1.00
5276;DHT22;2661;50.786;12.728;2024-01-10T00:37:18;-8.40;1.00
5276;DHT22;2661;50.786;12.728;2024-01-10T00:39:44;-8.50;1.00
5276;DHT22;2661;50.786;12.728;2024-01-10T00:42:11;-8.50;1.00
5276;DHT22;2661;50.786;12.728;2024-01-10T00:44:39;-8.50;1.00
5276;DHT22;2661;50.786;12.728;2024-01-10T00:47:06;-8.50;1.00
5276;DHT22;2661;50.786;12.728;2024-01-10T00:49:33;-8.50;1.00
5276;DHT22;2661;50.786;12.728;2024-01-10T00:52:00;-8.60;1.00
5276;DHT22;2661;50.786;12.728;2024-01-10T00:54:26;-8.60;1.00
5276;DHT22;2661;50.786;12.728;2024-01-10T00:56:53;-8.50;1.00
5276;DHT22;2661;50.786;12.728;2024-01-10T00:59:19;-8.60;1.00
5276;DHT22;2661;50.786;12.728;2024-01-10T01:01:46;-8.50;1.00
5276;DHT22;2661;50.786;12.728;2024-01-10T01:04:13;-8.50;1.00
5276;DHT22;2661;50.786;12.728;2024-01-10T01:06:39;-8.50;1.00
5276;DHT22;2661;50.786;12.728;2024-01-10T01:09:06;-8.50;1.00
5276;DHT22;2661;50.786;12.728;2024-01-10T01:11:32;-8.50;1.00
5276;DHT22;2661;50.786;12.728;2024-01-10T01:13:59;-8.60;1.00
5276;DHT22;2661;50.786;12.728;2024-01-10T01:16:26;-8.60;1.00
5276;DHT22;2661;50.786;12.728;2024-01-10T01:18:52;-8.60;1.00
5276;DHT22;2661;50.786;12.728;2024-01-10T01:21:19;-8.60;1.00
5276;DHT22;2661;50.786;12.728;2024-01-10T01:23:46;-8.50;1.00
5276;DHT22;2661;50.786;12.728;2024-01-10T01:26:12;-8.50;1.00
5276;DHT22;2661;50.786;12.728;2024-01-10T01:28:40;-8.50;1.00
5276;DHT22;2661;50.786;12.728;2024-01-10T01:31:07;-8.50;1.00
5276;DHT22;2661;50.786;12.728;2024-01-10T01:33:34;-8.50;1.00
5276;DHT22;2661;50.786;12.728;2024-01-10T01:36:01;-8.50;1.00
5276;DHT22;2661;50.786;12.728;2024-01-10T01:38:27;-8.50;2.60
5276;DHT22;2661;50.786;12.728;2024-01-10T01:40:54;-8.40;1.00
5276;DHT22;2661;50.786;12.728;2024-01-10T01:43:24;-8.50;1.00
5276;DHT22;2661;50.786;12.728;2024-01-10T01:45:52;-8.60;1.00
5276;DHT22;2661;50.786;12.728;2024-01-10T01:48:22;-8.50;1.00
5276;DHT22;2661;50.786;12.728;2024-01-10T01:50:55;-8.50;1.00
5276;DHT22;2661;50.786;12.728;2024-01-10T01:53:23;-8.60;1.00
5276;DHT22;2661;50.786;12.728;2024-01-10T01:55:50;-8.60;1.00
5276;DHT22;2661;50.786;12.728;2024-01-10T01:58:17;-8.60;1.00
5276;DHT22;2661;50.786;12.728;2024-01-10T02:00:43;-8.60;1.00
5276;DHT22;2661;50.786;12.728;2024-01-10T02:03:10;-8.50;1.00
5276;DHT22;2661;50.786;12.728;2024-01-10T02:05:37;-8.50;1.00
5276;DHT22;2661;50.786;12.728;2024-01-10T02:08:04;-8.50;1.00
5276;DHT22;2661;50.786;12.728;2024-01-10T02:10:31;-8.60;1.00
5276;DHT22;2661;50.786;12.728;2024-01-10T02:12:57;-8.60;1.00
5276;DHT22;2661;50.786;12.728;2024-01-10T02:15:24;-8.60;1.00
5276;DHT22;2661;50.786;12.728;2024-01-10T02:17:51;-8.60;1.00
5276;DHT22;2661;50.786;12.728;2024-01-10T02:20:17;-8.60;1.00
5276;DHT22;2661;50.786;12.728;2024-01-10T02:22:44;-8.50;1.00
5276;DHT22;2661;50.786;12.728;2024-01-10T02:25:12;-8.50;1.00
5276;DHT22;2661;50.786;12.728;2024-01-10T02:27:39;-8.50;1.00
5276;DHT22;2661;50.786;12.728;2024-01-10T02:30:06;-8.60;1.00
5276;DHT22;2661;50.786;12.728;2024-01-10T02:32:34;-8.50;1.00
5276;DHT22;2661;50.786;12.728;2024-01-10T02:35:01;-8.50;1.00
5276;DHT22;2661;50.786;12.728;2024-01-10T02:37:28;-8.50;1.00
5276;DHT22;2661;50.786;12.728;2024-01-10T02:39:54;-8.40;1.00
5276;DHT22;2661;50.786;12.728;2024-01-10T02:42:21;-8.40;1.00
5276;DHT22;2661;50.786;12.728;2024-01-10T02:44:48;-8.50;1.00
5276;DHT22;2661;50.786;12.728;2024-01-10T02:47:14;-8.40;1.00
5276;DHT22;2661;50.786;12.728;2024-01-10T02:49:41;-8.40;1.00
5276;DHT22;2661;50.786;12.728;2024-01-10T02:52:07;-8.50;1.00
5276;DHT22;2661;50.786;12.728;2024-01-10T02:54:34;-8.40;1.00
5276;DHT22;2661;50.786;12.728;2024-01-10T02:57:01;-8.40;1.00
5276;DHT22;2661;50.786;12.728;2024-01-10T02:59:27;-8.50;1.00
5276;DHT22;2661;50.786;12.728;2024-01-10T03:01:54;-8.60;1.00
5276;DHT22;2661;50.786;12.728;2024-01-10T03:04:20;-8.70;1.00
5276;DHT22;2661;50.786;12.728;2024-01-10T03:06:47;-8.70;3.30
5276;DHT22;2661;50.786;12.728;2024-01-10T03:09:14;-8.70;22.30
5276;DHT22;2661;50.786;12.728;2024-01-10T03:11:40;-8.80;14.80
5276;DHT22;2661;50.786;12.728;2024-01-10T03:14:07;-8.80;19.20
5276;DHT22;2661;50.786;12.728;2024-01-10T03:16:35;-8.90;7.40
5276;DHT22;2661;50.786;12.728;2024-01-10T03:19:02;-8.80;7.00
5276;DHT22;2661;50.786;12.728;2024-01-10T03:21:29;-8.90;25.00
5276;DHT22;2661;50.786;12.728;2024-01-10T03:23:56;-9.00;24.70
5276;DHT22;2661;50.786;12.728;2024-01-10T03:26:23;-8.90;11.30
5276;DHT22;2661;50.786;12.728;2024-01-10T03:28:50;-8.90;16.20
5276;DHT22;2661;50.786;12.728;2024-01-10T03:31:17;-8.80;26.70
5276;DHT22;2661;50.786;12.728;2024-01-10T03:33:44;-8.80;26.90
5276;DHT22;2661;50.786;12.728;2024-01-10T03:36:11;-8.80;25.50
5276;DHT22;2661;50.786;12.728;2024-01-10T03:38:38;-8.80;1.00
5276;DHT22;2661;50.786;12.728;2024-01-10T03:41:05;-8.70;1.80
5276;DHT22;2661;50.786;12.728;2024-01-10T03:43:31;-8.70;1.00
5276;DHT22;2661;50.786;12.728;2024-01-10T03:45:58;-8.60;1.00
5276;DHT22;2661;50.786;12.728;2024-01-10T03:48:25;-8.60;1.00
5276;DHT22;2661;50.786;12.728;2024-01-10T03:50:51;-8.70;1.00
5276;DHT22;2661;50.786;12.728;2024-01-10T03:53:18;-8.70;1.00
5276;DHT22;2661;50.786;12.728;2024-01-10T03:55:44;-8.60;1.00
5276;DHT22;2661;50.786;12.728;2024-01-10T03:58:11;-8.60;1.00
5276;DHT22;2661;50.786;12.728;2024-01-10T04:00:38;-8.60;1.00
5276;DHT22;2661;50.786;12.728;2024-01-10T04:03:04;-8.50;1.00
5276;DHT22;2661;50.786;12.728;2024-01-10T04:05:31;-8.50;1.00
5276;DHT22;2661;50.786;12.728;2024-01-10T04:07:58;-8.40;1.00
5276;DHT22;2661;50.786;12.728;2024-01-10T04:10:24;-8.50;1.00
5276;DHT22;2661;50.786;12.728;2024-01-10T04:12:51;-8.50;1.00
5276;DHT22;2661;50.786;12.728;2024-01-10T04:15:18;-8.40;1.00
5276;DHT22;2661;50.786;12.728;2024-01-10T04:17:44;-8.50;1.00
5276;DHT22;2661;50.786;12.728;2024-01-10T04:20:11;-8.50;1.00
5276;DHT22;2661;50.786;12.728;2024-01-10T04:22:38;-8.50;1.00
5276;DHT22;2661;50.786;12.728;2024-01-10T04:25:07;-8.50;1.00
5276;DHT22;2661;50.786;12.728;2024-01-10T04:27:34;-8.50;1.00
5276;DHT22;2661;50.786;12.728;2024-01-10T04:30:01;-8.50;1.00
5276;DHT22;2661;50.786;12.728;2024-01-10T04:32:27;-8.50;1.00
5276;DHT22;2661;50.786;12.728;2024-01-10T04:34:54;-8.50;1.00
5276;DHT22;2661;50.786;12.728;2024-01-10T04:37:21;-8.50;1.00
5276;DHT22;2661;50.786;12.728;2024-01-10T04:39:47;-8.40;1.00
5276;DHT22;2661;50.786;12.728;2024-01-10T04:42:14;-8.40;1.00
5276;DHT22;2661;50.786;12.728;2024-01-10T04:44:41;-8.40;1.00
5276;DHT22;2661;50.786;12.728;2024-01-10T04:47:08;-8.40;1.00
5276;DHT22;2661;50.786;12.728;2024-01-10T04:49:35;-8.40;1.00
5276;DHT22;2661;50.786;12.728;2024-01-10T04:52:01;-8.40;3.10
5276;DHT22;2661;50.786;12.728;2024-01-10T04:54:28;-8.40;1.00
5276;DHT22;2661;50.786;12.728;2024-01-10T04:56:55;-8.40;1.00
5276;DHT22;2661;50.786;12.728;2024-01-10T04:59:21;-8.40;1.00
5276;DHT22;2661;50.786;12.728;2024-01-10T05:01:48;-8.50;1.00
5276;DHT22;2661;50.786;12.728;2024-01-10T05:04:15;-8.50;1.00
5276;DHT22;2661;50.786;12.728;2024-01-10T05:06:41;-8.50;1.00
5276;DHT22;2661;50.786;12.728;2024-01-10T05:09:08;-8.40;1.00
5276;DHT22;2661;50.786;12.728;2024-01-10T05:11:36;-8.40;1.00
5276;DHT22;2661;50.786;12.728;2024-01-10T05:14:03;-8.40;1.00
5276;DHT22;2661;50.786;12.728;2024-01-10T05:16:30;-8.40;1.00
5276;DHT22;2661;50.786;12.728;2024-01-10T05:19:00;-8.50;1.00
5276;DHT22;2661;50.786;12.728;2024-01-10T05:21:27;-8.50;1.00
5276;DHT22;2661;50.786;12.728;2024-01-10T05:23:53;-8.50;1.00
5276;DHT22;2661;50.786;12.728;2024-01-10T05:26:20;-8.50;1.00
5276;DHT22;2661;50.786;12.728;2024-01-10T05:28:46;-8.50;1.00
5276;DHT22;2661;50.786;12.728;2024-01-10T05:31:13;-8.50;1.00
5276;DHT22;2661;50.786;12.728;2024-01-10T05:33:40;-8.50;7.00
5276;DHT22;2661;50.786;12.728;2024-01-10T05:36:09;-8.50;8.00
5276;DHT22;2661;50.786;12.728;2024-01-10T05:38:39;-8.50;1.00
5276;DHT22;2661;50.786;12.728;2024-01-10T05:41:09;-8.50;1.00
5276;DHT22;2661;50.786;12.728;2024-01-10T05:43:35;-8.60;1.00
5276;DHT22;2661;50.786;12.728;2024-01-10T05:46:03;-8.60;2.40
5276;DHT22;2661;50.786;12.728;2024-01-10T05:48:31;-8.70;4.60
5276;DHT22;2661;50.786;12.728;2024-01-10T05:50:58;-8.70;1.00
5276;DHT22;2661;50.786;12.728;2024-01-10T05:53:25;-8.70;1.00
5276;DHT22;2661;50.786;12.728;2024-01-10T05:55:52;-8.70;1.00
5276;DHT22;2661;50.786;12.728;2024-01-10T05:58:19;-8.70;1.00
5276;DHT22;2661;50.786;12.728;2024-01-10T06:00:46;-8.60;1.00
5276;DHT22;2661;50.786;12.728;2024-01-10T06:03:13;-8.70;1.00
5276;DHT22;2661;50.786;12.728;2024-01-10T06:05:40;-8.70;1.00
5276;DHT22;2661;50.786;12.728;2024-01-10T06:08:07;-8.80;1.00
5276;DHT22;2661;50.786;12.728;2024-01-10T06:10:34;-8.80;1.00
5276;DHT22;2661;50.786;12.728;2024-01-10T06:13:03;-8.80;1.00
5276;DHT22;2661;50.786;12.728;2024-01-10T06:15:30;-8.80;1.00
5276;DHT22;2661;50.786;12.728;2024-01-10T06:17:56;-8.50;1.00
5276;DHT22;2661;50.786;12.728;2024-01-10T06:20:23;-8.60;1.00
5276;DHT22;2661;50.786;12.728;2024-01-10T06:22:50;-8.50;1.00
5276;DHT22;2661;50.786;12.728;2024-01-10T06:25:17;-8.50;1.00
5276;DHT22;2661;50.786;12.728;2024-01-10T06:27:43;-8.40;6.10
5276;DHT22;2661;50.786;12.728;2024-01-10T06:30:10;-8.50;1.00
5276;DHT22;2661;50.786;12.728;2024-01-10T06:32:37;-8.60;1.00
5276;DHT22;2661;50.786;12.728;2024-01-10T06:35:04;-8.50;1.00
5276;DHT22;2661;50.786;12.728;2024-01-10T06:37:31;-8.50;1.00
5276;DHT22;2661;50.786;12.728;2024-01-10T06:40:00;-8.50;1.00
5276;DHT22;2661;50.786;12.728;2024-01-10T06:42:27;-8.50;1.00
5276;DHT22;2661;50.786;12.728;2024-01-10T06:44:53;-8.60;1.00
5276;DHT22;2661;50.786;12.728;2024-01-10T06:47:20;-8.60;1.00
5276;DHT22;2661;50.786;12.728;2024-01-10T06:49:48;-8.50;1.00
5276;DHT22;2661;50.786;12.728;2024-01-10T06:52:14;-8.40;1.00
5276;DHT22;2661;50.786;12.728;2024-01-10T06:54:41;-8.40;1.00
5276;DHT22;2661;50.786;12.728;2024-01-10T06:57:07;-8.50;1.00
5276;DHT22;2661;50.786;12.728;2024-01-10T06:59:34;-8.50;1.00
5276;DHT22;2661;50.786;12.728;2024-01-10T07:02:01;-8.50;1.00
5276;DHT22;2661;50.786;12.728;2024-01-10T07:04:28;-8.40;1.00
5276;DHT22;2661;50.786;12.728;2024-01-10T07:06:55;-8.40;1.00
5276;DHT22;2661;50.786;12.728;2024-01-10T07:09:21;-8.40;1.00
5276;DHT22;2661;50.786;12.728;2024-01-10T07:11:48;-8.40;1.00
5276;DHT22;2661;50.786;12.728;2024-01-10T07:14:15;-8.40;1.00
5276;DHT22;2661;50.786;12.728;2024-01-10T07:16:42;-8.40;1.00
5276;DHT22;2661;50.786;12.728;2024-01-10T07:19:12;-8.50;1.00
5276;DHT22;2661;50.786;12.728;2024-01-10T07:21:41;-8.50;1.00
5276;DHT22;2661;50.786;12.728;2024-01-10T07:24:08;-8.50;1.00
5276;DHT22;2661;50.786;12.728;2024-01-10T07:26:36;-8.40;1.00
5276;DHT22;2661;50.786;12.728;2024-01-10T07:29:03;-8.40;1.00
5276;DHT22;2661;50.786;12.728;2024-01-10T07:31:29;-8.40;1.00
5276;DHT22;2661;50.786;12.728;2024-01-10T07:33:56;-8.40;1.00
5276;DHT22;2661;50.786;12.728;2024-01-10T07:36:23;-8.40;1.00
5276;DHT22;2661;50.786;12.728;2024-01-10T07:38:51;-8.30;1.00
5276;DHT22;2661;50.786;12.728;2024-01-10T07:41:17;-8.30;1.00
5276;DHT22;2661;50.786;12.728;2024-01-10T07:43:44;-8.30;1.00
5276;DHT22;2661;50.786;12.728;2024-01-10T07:46:10;-8.20;1.00
5276;DHT22;2661;50.786;12.728;2024-01-10T07:48:37;-8.30;1.00
5276;DHT22;2661;50.786;12.728;2024-01-10T07:51:04;-8.20;1.00
5276;DHT22;2661;50.786;12.728;2024-01-10T07:53:31;-8.30;1.00
5276;DHT22;2661;50.786;12.728;2024-01-10T07:55:57;-8.30;1.00
5276;DHT22;2661;50.786;12.728;2024-01-10T07:58:24;-8.30;1.00
5276;DHT22;2661;50.786;12.728;2024-01-10T08:00:51;-8.20;1.00
5276;DHT22;2661;50.786;12.728;2024-01-10T08:03:17;-8.20;14.90
5276;DHT22;2661;50.786;12.728;2024-01-10T08:05:44;-8.20;1.00
5276;DHT22;2661;50.786;12.728;2024-01-10T08:08:11;-8.10;1.00
5276;DHT22;2661;50.786;12.728;2024-01-10T08:10:39;-8.10;1.00
5276;DHT22;2661;50.786;12.728;2024-01-10T08:13:06;-8.10;1.00
5276;DHT22;2661;50.786;12.728;2024-01-10T08:15:33;-8.10;1.00
5276;DHT22;2661;50.786;12.728;2024-01-10T08:18:01;-8.20;1.00
5276;DHT22;2661;50.786;12.728;2024-01-10T08:20:31;-8.20;1.00
5276;DHT22;2661;50.786;12.728;2024-01-10T08:22:57;-8.20;24.50
5276;DHT22;2661;50.786;12.728;2024-01-10T08:25:24;-8.20;1.00
5276;DHT22;2661;50.786;12.728;2024-01-10T08:27:51;-8.20;1.00
5276;DHT22;2661;50.786;12.728;2024-01-10T08:30:20;-8.10;1.00
5276;DHT22;2661;50.786;12.728;2024-01-10T08:32:48;-8.10;1.00
5276;DHT22;2661;50.786;12.728;2024-01-10T08:35:15;-8.00;1.00
5276;DHT22;2661;50.786;12.728;2024-01-10T08:37:42;-8.00;1.00
5276;DHT22;2661;50.786;12.728;2024-01-10T08:40:10;-7.90;1.00
5276;DHT22;2661;50.786;12.728;2024-01-10T08:42:38;-7.80;1.00
5276;DHT22;2661;50.786;12.728;2024-01-10T08:45:05;-7.70;1.00
5276;DHT22;2661;50.786;12.728;2024-01-10T08:47:31;-7.70;1.00
5276;DHT22;2661;50.786;12.728;2024-01-10T08:49:59;-7.60;1.00
5276;DHT22;2661;50.786;12.728;2024-01-10T08:52:25;-7.50;1.00
5276;DHT22;2661;50.786;12.728;2024-01-10T08:54:52;-7.40;1.00
5276;DHT22;2661;50.786;12.728;2024-01-10T08:57:19;-7.40;1.00
5276;DHT22;2661;50.786;12.728;2024-01-10T08:59:45;-7.30;1.00
5276;DHT22;2661;50.786;12.728;2024-01-10T09:02:13;-7.30;1.00
5276;DHT22;2661;50.786;12.728;2024-01-10T09:04:39;-7.20;1.00
5276;DHT22;2661;50.786;12.728;2024-01-10T09:07:06;-7.20;1.00
5276;DHT22;2661;50.786;12.728;2024-01-10T09:09:33;-7.20;1.00
5276;DHT22;2661;50.786;12.728;2024-01-10T09:12:00;-7.10;1.00
5276;DHT22;2661;50.786;12.728;2024-01-10T09:14:26;-7.10;1.00
5276;DHT22;2661;50.786;12.728;2024-01-10T09:16:53;-7.00;1.00
5276;DHT22;2661;50.786;12.728;2024-01-10T09:19:20;-7.00;1.00
5276;DHT22;2661;50.786;12.728;2024-01-10T09:21:47;-7.00;1.00
5276;DHT22;2661;50.786;12.728;2024-01-10T09:24:15;-6.90;1.00
5276;DHT22;2661;50.786;12.728;2024-01-10T09:26:54;-6.90;1.00
5276;DHT22;2661;50.786;12.728;2024-01-10T09:29:21;-6.80;1.00
5276;DHT22;2661;50.786;12.728;2024-01-10T09:31:48;-6.80;1.00
5276;DHT22;2661;50.786;12.728;2024-01-10T09:34:15;-6.70;1.00
5276;DHT22;2661;50.786;12.728;2024-01-10T09:36:41;-6.60;1.00
5276;DHT22;2661;50.786;12.728;2024-01-10T09:39:08;-6.40;1.00
5276;DHT22;2661;50.786;12.728;2024-01-10T09:41:45;-6.40;1.00
5276;DHT22;2661;50.786;12.728;2024-01-10T09:44:13;-6.20;1.00
5276;DHT22;2661;50.786;12.728;2024-01-10T09:46:40;-6.10;1.00
5276;DHT22;2661;50.786;12.728;2024-01-10T09:49:07;-6.00;1.00
5276;DHT22;2661;50.786;12.728;2024-01-10T09:51:34;-6.00;1.00
5276;DHT22;2661;50.786;12.728;2024-01-10T09:54:01;-5.90;1.00
5276;DHT22;2661;50.786;12.728;2024-01-10T09:56:29;-5.80;1.00
5276;DHT22;2661;50.786;12.728;2024-01-10T09:58:57;-5.70;1.00
5276;DHT22;2661;50.786;12.728;2024-01-10T10:01:24;-5.70;1.00
5276;DHT22;2661;50.786;12.728;2024-01-10T10:03:51;-5.50;1.00
5276;DHT22;2661;50.786;12.728;2024-01-10T10:06:18;-5.40;1.00
5276;DHT22;2661;50.786;12.728;2024-01-10T10:08:44;-5.30;1.00
5276;DHT22;2661;50.786;12.728;2024-01-10T10:11:12;-5.20;1.00
5276;DHT22;2661;50.786;12.728;2024-01-10T10:13:40;-5.20;1.00
5276;DHT22;2661;50.786;12.728;2024-01-10T10:16:08;-5.00;1.00
5276;DHT22;2661;50.786;12.728;2024-01-10T10:18:39;-4.90;1.00
5276;DHT22;2661;50.786;12.728;2024-01-10T10:21:09;-4.80;1.00
5276;DHT22;2661;50.786;12.728;2024-01-10T10:23:40;-4.80;1.00
5276;DHT22;2661;50.786;12.728;2024-01-10T10:26:16;-4.70;1.00
5276;DHT22;2661;50.786;12.728;2024-01-10T10:28:47;-4.60;1.00
5276;DHT22;2661;50.786;12.728;2024-01-10T10:31:14;-4.50;1.00
5276;DHT22;2661;50.786;12.728;2024-01-10T10:33:41;-4.50;1.00
5276;DHT22;2661;50.786;12.728;2024-01-10T10:36:09;-4.50;1.00
5276;DHT22;2661;50.786;12.728;2024-01-10T10:38:36;-4.40;1.00
5276;DHT22;2661;50.786;12.728;2024-01-10T10:41:04;-4.30;1.00
5276;DHT22;2661;50.786;12.728;2024-01-10T10:43:33;-4.20;1.00
5276;DHT22;2661;50.786;12.728;2024-01-10T10:46:01;-4.10;1.00
5276;DHT22;2661;50.786;12.728;2024-01-10T10:48:32;-4.00;1.00
5276;DHT22;2661;50.786;12.728;2024-01-10T10:51:00;-4.00;1.00
5276;DHT22;2661;50.786;12.728;2024-01-10T10:53:30;-3.90;1.00
5276;DHT22;2661;50.786;12.728;2024-01-10T10:55:58;-3.70;1.00
5276;DHT22;2661;50.786;12.728;2024-01-10T10:58:25;-3.60;1.00
5276;DHT22;2661;50.786;12.728;2024-01-10T11:00:52;-3.50;1.00
5276;DHT22;2661;50.786;12.728;2024-01-10T11:03:19;-3.40;1.00
5276;DHT22;2661;50.786;12.728;2024-01-10T11:05:47;-3.40;1.00
5276;DHT22;2661;50.786;12.728;2024-01-10T11:08:15;-3.30;1.00
5276;DHT22;2661;50.786;12.728;2024-01-10T11:10:43;-3.20;1.00
5276;DHT22;2661;50.786;12.728;2024-01-10T11:13:25;-3.10;1.00
5276;DHT22;2661;50.786;12.728;2024-01-10T11:16:15;-3.10;1.00
5276;DHT22;2661;50.786;12.728;2024-01-10T11:21:18;-2.90;1.00
5276;DHT22;2661;50.786;12.728;2024-01-10T11:23:47;-2.80;1.00
5276;DHT22;2661;50.786;12.728;2024-01-10T11:26:15;-2.80;1.00
5276;DHT22;2661;50.786;12.728;2024-01-10T11:28:42;-2.70;1.00
5276;DHT22;2661;50.786;12.728;2024-01-10T11:31:09;-2.60;1.00
5276;DHT22;2661;50.786;12.728;2024-01-10T11:33:37;-2.50;1.00
5276;DHT22;2661;50.786;12.728;2024-01-10T11:36:17;-2.40;1.00
5276;DHT22;2661;50.786;12.728;2024-01-10T11:39:00;-2.30;1.00
5276;DHT22;2661;50.786;12.728;2024-01-10T11:41:36;-2.10;1.00
5276;DHT22;2661;50.786;12.728;2024-01-10T11:46:40;-1.70;1.00
5276;DHT22;2661;50.786;12.728;2024-01-10T11:49:08;-1.50;1.00
5276;DHT22;2661;50.786;12.728;2024-01-10T11:51:38;-1.40;1.00
5276;DHT22;2661;50.786;12.728;2024-01-10T11:54:05;-1.20;8.40
5276;DHT22;2661;50.786;12.728;2024-01-10T11:56:37;-1.10;8.30
5276;DHT22;2661;50.786;12.728;2024-01-10T11:59:15;-0.90;8.00
5276;DHT22;2661;50.786;12.728;2024-01-10T12:01:43;-0.90;1.00
5276;DHT22;2661;50.786;12.728;2024-01-10T12:04:10;-0.80;23.60
5276;DHT22;2661;50.786;12.728;2024-01-10T12:06:49;-0.70;7.30
5276;DHT22;2661;50.786;12.728;2024-01-10T12:09:16;-0.70;13.40
5276;DHT22;2661;50.786;12.728;2024-01-10T12:11:43;-0.60;14.20
5276;DHT22;2661;50.786;12.728;2024-01-10T12:14:09;-0.50;19.70
5276;DHT22;2661;50.786;12.728;2024-01-10T12:16:36;-0.40;29.20
5276;DHT22;2661;50.786;12.728;2024-01-10T12:19:03;-0.40;18.70
5276;DHT22;2661;50.786;12.728;2024-01-10T12:21:29;-0.30;21.00
5276;DHT22;2661;50.786;12.728;2024-01-10T12:23:56;-0.30;10.50
5276;DHT22;2661;50.786;12.728;2024-01-10T12:26:23;-0.20;32.60
5276;DHT22;2661;50.786;12.728;2024-01-10T12:28:56;-0.20;23.10
5276;DHT22;2661;50.786;12.728;2024-01-10T12:31:23;-0.20;99.90
5276;DHT22;2661;50.786;12.728;2024-01-10T12:33:51;-0.10;1.00
5276;DHT22;2661;50.786;12.728;2024-01-10T12:36:18;0.00;6.10
5276;DHT22;2661;50.786;12.728;2024-01-10T12:38:46;0.00;17.10
5276;DHT22;2661;50.786;12.728;2024-01-10T12:41:16;0.10;25.60
5276;DHT22;2661;50.786;12.728;2024-01-10T12:43:43;0.10;8.80
5276;DHT22;2661;50.786;12.728;2024-01-10T12:46:10;0.10;8.00
5276;DHT22;2661;50.786;12.728;2024-01-10T12:48:40;0.10;34.90
5276;DHT22;2661;50.786;12.728;2024-01-10T12:51:11;0.20;28.80
5276;DHT22;2661;50.786;12.728;2024-01-10T12:53:39;0.20;17.80
5276;DHT22;2661;50.786;12.728;2024-01-10T12:56:07;0.20;31.30
5276;DHT22;2661;50.786;12.728;2024-01-10T12:58:34;0.20;31.60
5276;DHT22;2661;50.786;12.728;2024-01-10T13:01:02;0.30;26.40
5276;DHT22;2661;50.786;12.728;2024-01-10T13:03:32;0.40;34.20
5276;DHT22;2661;50.786;12.728;2024-01-10T13:05:59;0.40;42.80
5276;DHT22;2661;50.786;12.728;2024-01-10T13:08:25;0.40;1.00
5276;DHT22;2661;50.786;12.728;2024-01-10T13:10:52;0.40;1.00
5276;DHT22;2661;50.786;12.728;2024-01-10T13:13:19;0.40;17.70
5276;DHT22;2661;50.786;12.728;2024-01-10T13:15:48;0.40;23.80
5276;DHT22;2661;50.786;12.728;2024-01-10T13:18:15;0.40;61.40
5276;DHT22;2661;50.786;12.728;2024-01-10T13:20:43;0.50;45.10
5276;DHT22;2661;50.786;12.728;2024-01-10T13:23:10;0.50;21.30
5276;DHT22;2661;50.786;12.728;2024-01-10T13:25:36;0.60;44.90
5276;DHT22;2661;50.786;12.728;2024-01-10T13:28:04;0.60;22.70
5276;DHT22;2661;50.786;12.728;2024-01-10T13:30:31;0.60;1.00
5276;DHT22;2661;50.786;12.728;2024-01-10T13:32:57;0.60;25.80
5276;DHT22;2661;50.786;12.728;2024-01-10T13:35:24;0.60;1.00
5276;DHT22;2661;50.786;12.728;2024-01-10T13:37:51;0.70;13.40
5276;DHT22;2661;50.786;12.728;2024-01-10T13:40:18;0.60;1.00
5276;DHT22;2661;50.786;12.728;2024-01-10T13:42:50;0.60;1.00
5276;DHT22;2661;50.786;12.728;2024-01-10T13:45:17;0.60;1.00
5276;DHT22;2661;50.786;12.728;2024-01-10T13:47:44;0.60;1.00
5276;DHT22;2661;50.786;12.728;2024-01-10T13:50:11;0.50;1.50
5276;DHT22;2661;50.786;12.728;2024-01-10T13:52:38;0.50;10.60
5276;DHT22;2661;50.786;12.728;2024-01-10T13:55:05;0.40;14.20
5276;DHT22;2661;50.786;12.728;2024-01-10T13:57:31;0.30;1.00
5276;DHT22;2661;50.786;12.728;2024-01-10T14:00:02;0.30;12.20
5276;DHT22;2661;50.786;12.728;2024-01-10T14:02:30;0.30;1.00
5276;DHT22;2661;50.786;12.728;2024-01-10T14:04:56;0.30;1.00
5276;DHT22;2661;50.786;12.728;2024-01-10T14:07:26;0.30;3.90
5276;DHT22;2661;50.786;12.728;2024-01-10T14:09:53;0.30;1.00
5276;DHT22;2661;50.786;12.728;2024-01-10T14:12:22;0.30;1.00
5276;DHT22;2661;50.786;12.728;2024-01-10T14:14:49;0.20;1.00
5276;DHT22;2661;50.786;12.728;2024-01-10T14:17:15;0.20;1.00
5276;DHT22;2661;50.786;12.728;2024-01-10T14:19:42;0.20;1.00
5276;DHT22;2661;50.786;12.728;2024-01-10T14:22:10;0.10;25.70
5276;DHT22;2661;50.786;12.728;2024-01-10T14:24:54;0.20;1.00
5276;DHT22;2661;50.786;12.728;2024-01-10T14:27:21;0.20;1.00
5276;DHT22;2661;50.786;12.728;2024-01-10T14:29:48;0.20;28.30
5276;DHT22;2661;50.786;12.728;2024-01-10T14:32:15;0.20;21.20
5276;DHT22;2661;50.786;12.728;2024-01-10T14:34:44;0.10;17.20
5276;DHT22;2661;50.786;12.728;2024-01-10T14:37:13;0.10;5.50
5276;DHT22;2661;50.786;12.728;2024-01-10T14:39:40;0.10;1.00
5276;DHT22;2661;50.786;12.728;2024-01-10T14:42:06;0.00;42.70
5276;DHT22;2661;50.786;12.728;2024-01-10T14:44:34;0.00;47.70
5276;DHT22;2661;50.786;12.728;2024-01-10T14:47:01;0.00;1.00
5276;DHT22;2661;50.786;12.728;2024-01-10T14:49:36;-0.10;1.00
5276;DHT22;2661;50.786;12.728;2024-01-10T14:52:03;-0.10;1.00
5276;DHT22;2661;50.786;12.728;2024-01-10T14:54:29;-0.10;1.00
5276;DHT22;2661;50.786;12.728;2024-01-10T14:56:57;-0.20;1.00
5276;DHT22;2661;50.786;12.728;2024-01-10T14:59:23;-0.20;1.00
5276;DHT22;2661;50.786;12.728;2024-01-10T15:02:06;-0.20;1.00
5276;DHT22;2661;50.786;12.728;2024-01-10T15:04:36;-0.20;1.00
5276;DHT22;2661;50.786;12.728;2024-01-10T15:07:04;-0.20;1.00
5276;DHT22;2661;50.786;12.728;2024-01-10T15:09:30;-0.30;1.00
5276;DHT22;2661;50.786;12.728;2024-01-10T15:11:57;-0.30;1.00
5276;DHT22;2661;50.786;12.728;2024-01-10T15:14:23;-0.30;1.00
5276;DHT22;2661;50.786;12.728;2024-01-10T15:16:50;-0.40;1.00
5276;DHT22;2661;50.786;12.728;2024-01-10T15:19:17;-0.40;1.00
5276;DHT22;2661;50.786;12.728;2024-01-10T15:21:46;-0.50;1.00
5276;DHT22;2661;50.786;12.728;2024-01-10T15:24:14;-0.60;1.00
5276;DHT22;2661;50.786;12.728;2024-01-10T15:26:42;-0.60;20.00
5276;DHT22;2661;50.786;12.728;2024-01-10T15:29:09;-0.60;35.90
5276;DHT22;2661;50.786;12.728;2024-01-10T15:31:36;-0.60;10.90
5276;DHT22;2661;50.786;12.728;2024-01-10T15:34:03;-0.60;1.00
5276;DHT22;2661;50.786;12.728;2024-01-10T15:36:30;-0.70;1.00
5276;DHT22;2661;50.786;12.728;2024-01-10T15:38:58;-0.70;19.20
5276;DHT22;2661;50.786;12.728;2024-01-10T15:41:24;-0.70;1.00
5276;DHT22;2661;50.786;12.728;2024-01-10T15:43:51;-0.70;3.30
5276;DHT22;2661;50.786;12.728;2024-01-10T15:46:18;-0.80;1.00
5276;DHT22;2661;50.786;12.728;2024-01-10T15:48:46;-0.90;1.00
5276;DHT22;2661;50.786;12.728;2024-01-10T15:51:13;-0.90;1.00
5276;DHT22;2661;50.786;12.728;2024-01-10T15:53:40;-0.90;46.50
5276;DHT22;2661;50.786;12.728;2024-01-10T15:56:07;-1.00;25.40
5276;DHT22;2661;50.786;12.728;2024-01-10T15:58:34;-0.90;24.40
5276;DHT22;2661;50.786;12.728;2024-01-10T16:01:00;-1.10;1.00
5276;DHT22;2661;50.786;12.728;2024-01-10T16:03:27;-1.10;1.00
5276;DHT22;2661;50.786;12.728;2024-01-10T16:05:54;-1.10;6.30
5276;DHT22;2661;50.786;12.728;2024-01-10T16:08:21;-1.20;44.20